sensor_id;sensor_type;location;lat;lon;timestamp;P1;durP1;ratioP1;P2;durP2;ratioP2
12707;SDS011;6418;50.824;4.718;2023-12-28T00:01:49;10.47;;;5.10;;
12707;SDS011;6418;50.824;4.718;2023-12-28T00:04:16;8.90;;;4.63;;
12707;SDS011;6418;50.824;4.718;2023-12-28T00:06:45;9.83;;;4.97;;
12707;SDS011;6418;50.824;4.718;2023-12-28T00:09:12;8.60;;;4.90;;
12707;SDS011;6418;50.824;4.718;2023-12-28T00:11:39;9.93;;;4.97;;
12707;SDS011;6418;50.824;4.718;2023-12-28T00:14:06;9.93;;;5.20;;
12707;SDS011;6418;50.824;4.718;2023-12-28T00:16:33;12.80;;;5.30;;
12707;SDS011;6418;50.824;4.718;2023-12-28T00:19:02;8.47;;;4.90;;
12707;SDS011;6418;50.824;4.718;2023-12-28T00:21:29;9.90;;;4.90;;
12707;SDS011;6418;50.824;4.718;2023-12-28T00:23:58;8.17;;;4.90;;
12707;SDS011;6418;50.824;4.718;2023-12-28T00:26:25;9.40;;;4.70;;
12707;SDS011;6418;50.824;4.718;2023-12-28T00:28:52;9.57;;;4.90;;
12707;SDS011;6418;50.824;4.718;2023-12-28T00:31:19;8.07;;;4.97;;
12707;SDS011;6418;50.824;4.718;2023-12-28T00:33:46;10.53;;;4.97;;
12707;SDS011;6418;50.824;4.718;2023-12-28T00:36:14;12.60;;;5.37;;
12707;SDS011;6418;50.824;4.718;2023-12-28T00:38:41;10.97;;;5.20;;
12707;SDS011;6418;50.824;4.718;2023-12-28T00:41:09;11.87;;;5.03;;
12707;SDS011;6418;50.824;4.718;2023-12-28T00:43:36;9.50;;;5.00;;
12707;SDS011;6418;50.824;4.718;2023-12-28T00:46:03;10.63;;;5.17;;
12707;SDS011;6418;50.824;4.718;2023-12-28T00:48:30;9.07;;;5.13;;
12707;SDS011;6418;50.824;4.718;2023-12-28T00:50:57;10.57;;;5.53;;
12707;SDS011;6418;50.824;4.718;2023-12-28T00:53:25;12.87;;;5.00;;
12707;SDS011;6418;50.824;4.718;2023-12-28T00:55:52;11.17;;;5.30;;
12707;SDS011;6418;50.824;4.718;2023-12-28T00:58:20;11.33;;;5.07;;
12707;SDS011;6418;50.824;4.718;2023-12-28T01:00:47;10.27;;;5.23;;
12707;SDS011;6418;50.824;4.718;2023-12-28T01:03:18;8.80;;;4.93;;
12707;SDS011;6418;50.824;4.718;2023-12-28T01:05:45;11.20;;;5.47;;
12707;SDS011;6418;50.824;4.718;2023-12-28T01:08:15;10.20;;;5.30;;
12707;SDS011;6418;50.824;4.718;2023-12-28T01:10:42;10.00;;;5.70;;
12707;SDS011;6418;50.824;4.718;2023-12-28T01:13:09;11.60;;;5.67;;
12707;SDS011;6418;50.824;4.718;2023-12-28T01:15:38;10.67;;;5.40;;
12707;SDS011;6418;50.824;4.718;2023-12-28T01:18:05;11.70;;;5.10;;
12707;SDS011;6418;50.824;4.718;2023-12-28T01:20:32;11.97;;;5.43;;
12707;SDS011;6418;50.824;4.718;2023-12-28T01:23:00;11.33;;;5.60;;
12707;SDS011;6418;50.824;4.718;2023-12-28T01:25:27;10.87;;;5.17;;
12707;SDS011;6418;50.824;4.718;2023-12-28T01:27:54;11.37;;;5.40;;
12707;SDS011;6418;50.824;4.718;2023-12-28T01:30:21;14.37;;;5.27;;
12707;SDS011;6418;50.824;4.718;2023-12-28T01:32:49;12.40;;;5.30;;
12707;SDS011;6418;50.824;4.718;2023-12-28T01:35:16;9.97;;;5.33;;
12707;SDS011;6418;50.824;4.718;2023-12-28T01:37:43;11.93;;;5.27;;
12707;SDS011;6418;50.824;4.718;2023-12-28T01:40:10;10.73;;;5.60;;
12707;SDS011;6418;50.824;4.718;2023-12-28T01:42:37;11.30;;;5.90;;
12707;SDS011;6418;50.824;4.718;2023-12-28T01:45:05;10.40;;;5.60;;
12707;SDS011;6418;50.824;4.718;2023-12-28T01:47:33;10.90;;;5.53;;
12707;SDS011;6418;50.824;4.718;2023-12-28T01:50:02;11.37;;;5.77;;
12707;SDS011;6418;50.824;4.718;2023-12-28T01:52:31;12.37;;;5.60;;
12707;SDS011;6418;50.824;4.718;2023-12-28T01:54:58;11.40;;;5.30;;
12707;SDS011;6418;50.824;4.718;2023-12-28T01:57:27;13.10;;;6.00;;
12707;SDS011;6418;50.824;4.718;2023-12-28T01:59:54;9.33;;;5.20;;
12707;SDS011;6418;50.824;4.718;2023-12-28T02:02:23;14.13;;;5.70;;
12707;SDS011;6418;50.824;4.718;2023-12-28T02:04:50;12.40;;;5.57;;
12707;SDS011;6418;50.824;4.718;2023-12-28T02:07:19;11.73;;;5.60;;
12707;SDS011;6418;50.824;4.718;2023-12-28T02:09:47;10.87;;;5.67;;
12707;SDS011;6418;50.824;4.718;2023-12-28T02:12:14;12.60;;;5.90;;
12707;SDS011;6418;50.824;4.718;2023-12-28T02:14:41;10.40;;;5.00;;
12707;SDS011;6418;50.824;4.718;2023-12-28T02:17:10;12.23;;;5.37;;
12707;SDS011;6418;50.824;4.718;2023-12-28T02:19:43;10.77;;;5.37;;
12707;SDS011;6418;50.824;4.718;2023-12-28T02:22:15;14.50;;;5.40;;
12707;SDS011;6418;50.824;4.718;2023-12-28T02:24:58;11.90;;;5.63;;
12707;SDS011;6418;50.824;4.718;2023-12-28T02:27:30;13.90;;;5.53;;
12707;SDS011;6418;50.824;4.718;2023-12-28T02:29:58;12.90;;;5.50;;
12707;SDS011;6418;50.824;4.718;2023-12-28T02:32:28;10.33;;;5.30;;
12707;SDS011;6418;50.824;4.718;2023-12-28T02:35:06;9.60;;;5.10;;
12707;SDS011;6418;50.824;4.718;2023-12-28T02:37:41;12.93;;;5.57;;
12707;SDS011;6418;50.824;4.718;2023-12-28T02:40:11;11.83;;;5.40;;
12707;SDS011;6418;50.824;4.718;2023-12-28T02:42:41;12.10;;;5.00;;
12707;SDS011;6418;50.824;4.718;2023-12-28T02:45:08;11.87;;;5.33;;
12707;SDS011;6418;50.824;4.718;2023-12-28T02:47:35;10.87;;;5.43;;
12707;SDS011;6418;50.824;4.718;2023-12-28T02:50:03;13.13;;;5.40;;
12707;SDS011;6418;50.824;4.718;2023-12-28T02:52:30;10.23;;;5.37;;
12707;SDS011;6418;50.824;4.718;2023-12-28T02:54:57;13.50;;;5.83;;
12707;SDS011;6418;50.824;4.718;2023-12-28T02:57:25;11.23;;;5.30;;
12707;SDS011;6418;50.824;4.718;2023-12-28T02:59:52;11.20;;;5.40;;
12707;SDS011;6418;50.824;4.718;2023-12-28T03:02:21;13.07;;;5.70;;
12707;SDS011;6418;50.824;4.718;2023-12-28T03:04:48;11.30;;;5.40;;
12707;SDS011;6418;50.824;4.718;2023-12-28T03:07:15;13.30;;;5.50;;
12707;SDS011;6418;50.824;4.718;2023-12-28T03:09:42;10.80;;;5.47;;
12707;SDS011;6418;50.824;4.718;2023-12-28T03:12:09;9.77;;;5.17;;
12707;SDS011;6418;50.824;4.718;2023-12-28T03:14:38;11.50;;;5.13;;
12707;SDS011;6418;50.824;4.718;2023-12-28T03:17:05;13.57;;;5.60;;
12707;SDS011;6418;50.824;4.718;2023-12-28T03:19:32;11.70;;;5.27;;
12707;SDS011;6418;50.824;4.718;2023-12-28T03:21:59;12.93;;;5.50;;
12707;SDS011;6418;50.824;4.718;2023-12-28T03:24:26;12.77;;;5.57;;
12707;SDS011;6418;50.824;4.718;2023-12-28T03:26:53;11.70;;;5.03;;
12707;SDS011;6418;50.824;4.718;2023-12-28T03:29:20;9.93;;;4.87;;
12707;SDS011;6418;50.824;4.718;2023-12-28T03:31:48;10.40;;;5.00;;
12707;SDS011;6418;50.824;4.718;2023-12-28T03:34:15;10.43;;;5.13;;
12707;SDS011;6418;50.824;4.718;2023-12-28T03:36:42;13.70;;;4.83;;
12707;SDS011;6418;50.824;4.718;2023-12-28T03:39:09;12.80;;;5.00;;
12707;SDS011;6418;50.824;4.718;2023-12-28T03:41:36;14.23;;;5.03;;
12707;SDS011;6418;50.824;4.718;2023-12-28T03:44:03;11.77;;;4.60;;
12707;SDS011;6418;50.824;4.718;2023-12-28T03:46:30;16.13;;;5.13;;
12707;SDS011;6418;50.824;4.718;2023-12-28T03:48:58;12.70;;;4.90;;
12707;SDS011;6418;50.824;4.718;2023-12-28T03:51:25;12.50;;;5.10;;
12707;SDS011;6418;50.824;4.718;2023-12-28T03:53:52;12.60;;;5.17;;
12707;SDS011;6418;50.824;4.718;2023-12-28T03:56:22;13.03;;;5.00;;
12707;SDS011;6418;50.824;4.718;2023-12-28T03:58:51;13.10;;;4.93;;
12707;SDS011;6418;50.824;4.718;2023-12-28T04:01:18;12.37;;;4.90;;
12707;SDS011;6418;50.824;4.718;2023-12-28T04:03:47;11.63;;;5.00;;
12707;SDS011;6418;50.824;4.718;2023-12-28T04:06:16;14.23;;;4.90;;
12707;SDS011;6418;50.824;4.718;2023-12-28T04:08:43;13.30;;;4.70;;
12707;SDS011;6418;50.824;4.718;2023-12-28T04:11:10;11.27;;;4.77;;
12707;SDS011;6418;50.824;4.718;2023-12-28T04:13:37;12.50;;;4.83;;
12707;SDS011;6418;50.824;4.718;2023-12-28T04:16:04;12.37;;;4.63;;
12707;SDS011;6418;50.824;4.718;2023-12-28T04:18:31;12.13;;;5.00;;
12707;SDS011;6418;50.824;4.718;2023-12-28T04:20:59;12.80;;;4.90;;
12707;SDS011;6418;50.824;4.718;2023-12-28T04:23:27;11.40;;;4.57;;
12707;SDS011;6418;50.824;4.718;2023-12-28T04:25:54;14.30;;;4.80;;
12707;SDS011;6418;50.824;4.718;2023-12-28T04:28:21;15.87;;;5.33;;
12707;SDS011;6418;50.824;4.718;2023-12-28T04:30:48;11.17;;;4.73;;
12707;SDS011;6418;50.824;4.718;2023-12-28T04:33:16;15.00;;;4.80;;
12707;SDS011;6418;50.824;4.718;2023-12-28T04:35:45;10.83;;;4.37;;
12707;SDS011;6418;50.824;4.718;2023-12-28T04:38:12;12.77;;;4.50;;
12707;SDS011;6418;50.824;4.718;2023-12-28T04:40:41;16.20;;;4.60;;
12707;SDS011;6418;50.824;4.718;2023-12-28T04:43:08;15.43;;;4.80;;
12707;SDS011;6418;50.824;4.718;2023-12-28T04:45:35;13.87;;;4.57;;
12707;SDS011;6418;50.824;4.718;2023-12-28T04:48:03;11.67;;;4.60;;
12707;SDS011;6418;50.824;4.718;2023-12-28T04:50:30;11.60;;;4.53;;
12707;SDS011;6418;50.824;4.718;2023-12-28T04:52:57;13.37;;;4.67;;
12707;SDS011;6418;50.824;4.718;2023-12-28T04:55:24;13.50;;;4.77;;
12707;SDS011;6418;50.824;4.718;2023-12-28T04:57:53;10.17;;;4.50;;
12707;SDS011;6418;50.824;4.718;2023-12-28T05:00:19;15.17;;;5.03;;
12707;SDS011;6418;50.824;4.718;2023-12-28T05:02:47;14.40;;;4.87;;
12707;SDS011;6418;50.824;4.718;2023-12-28T05:05:13;14.50;;;5.20;;
12707;SDS011;6418;50.824;4.718;2023-12-28T05:07:40;16.03;;;5.13;;
12707;SDS011;6418;50.824;4.718;2023-12-28T05:10:08;13.33;;;4.50;;
12707;SDS011;6418;50.824;4.718;2023-12-28T05:12:35;15.17;;;4.67;;
12707;SDS011;6418;50.824;4.718;2023-12-28T05:15:04;11.07;;;4.30;;
12707;SDS011;6418;50.824;4.718;2023-12-28T05:17:31;14.37;;;4.63;;
12707;SDS011;6418;50.824;4.718;2023-12-28T05:19:58;13.60;;;4.53;;
12707;SDS011;6418;50.824;4.718;2023-12-28T05:22:25;14.43;;;4.67;;
12707;SDS011;6418;50.824;4.718;2023-12-28T05:24:52;13.33;;;4.27;;
12707;SDS011;6418;50.824;4.718;2023-12-28T05:27:19;17.60;;;4.80;;
12707;SDS011;6418;50.824;4.718;2023-12-28T05:29:46;17.50;;;4.60;;
12707;SDS011;6418;50.824;4.718;2023-12-28T05:32:15;12.90;;;4.40;;
12707;SDS011;6418;50.824;4.718;2023-12-28T05:34:42;17.73;;;5.07;;
12707;SDS011;6418;50.824;4.718;2023-12-28T05:37:09;16.40;;;4.97;;
12707;SDS011;6418;50.824;4.718;2023-12-28T05:39:36;17.53;;;4.90;;
12707;SDS011;6418;50.824;4.718;2023-12-28T05:42:03;12.77;;;4.77;;
12707;SDS011;6418;50.824;4.718;2023-12-28T05:44:31;14.40;;;4.70;;
12707;SDS011;6418;50.824;4.718;2023-12-28T05:46:58;15.60;;;5.13;;
12707;SDS011;6418;50.824;4.718;2023-12-28T05:49:26;14.47;;;4.70;;
12707;SDS011;6418;50.824;4.718;2023-12-28T05:51:55;16.53;;;5.03;;
12707;SDS011;6418;50.824;4.718;2023-12-28T05:54:22;17.80;;;4.63;;
12707;SDS011;6418;50.824;4.718;2023-12-28T05:56:49;17.37;;;4.83;;
12707;SDS011;6418;50.824;4.718;2023-12-28T05:59:16;14.83;;;4.87;;
12707;SDS011;6418;50.824;4.718;2023-12-28T06:01:43;15.13;;;4.57;;
12707;SDS011;6418;50.824;4.718;2023-12-28T06:04:10;16.03;;;4.83;;
12707;SDS011;6418;50.824;4.718;2023-12-28T06:06:38;15.50;;;4.67;;
12707;SDS011;6418;50.824;4.718;2023-12-28T06:09:05;17.43;;;4.77;;
12707;SDS011;6418;50.824;4.718;2023-12-28T06:11:33;17.87;;;4.90;;
12707;SDS011;6418;50.824;4.718;2023-12-28T06:14:00;17.03;;;4.97;;
12707;SDS011;6418;50.824;4.718;2023-12-28T06:16:27;19.23;;;4.90;;
12707;SDS011;6418;50.824;4.718;2023-12-28T06:18:57;14.80;;;4.90;;
12707;SDS011;6418;50.824;4.718;2023-12-28T06:21:25;16.93;;;4.57;;
12707;SDS011;6418;50.824;4.718;2023-12-28T06:23:53;19.47;;;5.20;;
12707;SDS011;6418;50.824;4.718;2023-12-28T06:26:20;17.30;;;4.67;;
12707;SDS011;6418;50.824;4.718;2023-12-28T06:28:47;12.57;;;4.73;;
12707;SDS011;6418;50.824;4.718;2023-12-28T06:31:14;19.83;;;4.83;;
12707;SDS011;6418;50.824;4.718;2023-12-28T06:33:41;18.03;;;5.13;;
12707;SDS011;6418;50.824;4.718;2023-12-28T06:36:09;22.17;;;5.13;;
12707;SDS011;6418;50.824;4.718;2023-12-28T06:38:37;17.23;;;5.00;;
12707;SDS011;6418;50.824;4.718;2023-12-28T06:41:10;16.87;;;4.97;;
12707;SDS011;6418;50.824;4.718;2023-12-28T06:43:38;14.10;;;5.10;;
12707;SDS011;6418;50.824;4.718;2023-12-28T06:46:05;17.97;;;4.87;;
12707;SDS011;6418;50.824;4.718;2023-12-28T06:48:32;12.93;;;4.40;;
12707;SDS011;6418;50.824;4.718;2023-12-28T06:51:00;16.83;;;4.50;;
12707;SDS011;6418;50.824;4.718;2023-12-28T06:53:27;17.47;;;4.83;;
12707;SDS011;6418;50.824;4.718;2023-12-28T06:55:54;16.47;;;4.93;;
12707;SDS011;6418;50.824;4.718;2023-12-28T06:58:22;17.50;;;4.90;;
12707;SDS011;6418;50.824;4.718;2023-12-28T07:00:49;16.47;;;4.57;;
12707;SDS011;6418;50.824;4.718;2023-12-28T07:03:16;17.90;;;4.90;;
12707;SDS011;6418;50.824;4.718;2023-12-28T07:05:43;16.30;;;4.60;;
12707;SDS011;6418;50.824;4.718;2023-12-28T07:08:10;22.30;;;5.30;;
12707;SDS011;6418;50.824;4.718;2023-12-28T07:10:37;15.60;;;4.77;;
12707;SDS011;6418;50.824;4.718;2023-12-28T07:13:04;20.07;;;5.10;;
12707;SDS011;6418;50.824;4.718;2023-12-28T07:15:32;14.50;;;4.50;;
12707;SDS011;6418;50.824;4.718;2023-12-28T07:17:59;17.57;;;4.70;;
12707;SDS011;6418;50.824;4.718;2023-12-28T07:20:26;18.90;;;4.93;;
12707;SDS011;6418;50.824;4.718;2023-12-28T07:22:53;16.10;;;5.23;;
12707;SDS011;6418;50.824;4.718;2023-12-28T07:25:20;15.30;;;4.80;;
12707;SDS011;6418;50.824;4.718;2023-12-28T07:27:47;20.93;;;4.90;;
12707;SDS011;6418;50.824;4.718;2023-12-28T07:30:14;18.83;;;5.37;;
12707;SDS011;6418;50.824;4.718;2023-12-28T07:32:43;15.23;;;4.70;;
12707;SDS011;6418;50.824;4.718;2023-12-28T07:35:11;18.93;;;5.30;;
12707;SDS011;6418;50.824;4.718;2023-12-28T07:37:38;20.00;;;5.40;;
12707;SDS011;6418;50.824;4.718;2023-12-28T07:40:06;16.40;;;5.40;;
12707;SDS011;6418;50.824;4.718;2023-12-28T07:42:33;17.83;;;5.00;;
12707;SDS011;6418;50.824;4.718;2023-12-28T07:45:00;17.27;;;4.90;;
12707;SDS011;6418;50.824;4.718;2023-12-28T07:47:28;13.90;;;4.67;;
12707;SDS011;6418;50.824;4.718;2023-12-28T07:49:57;20.10;;;5.10;;
12707;SDS011;6418;50.824;4.718;2023-12-28T07:52:25;17.27;;;4.90;;
12707;SDS011;6418;50.824;4.718;2023-12-28T07:54:52;21.03;;;5.30;;
12707;SDS011;6418;50.824;4.718;2023-12-28T07:57:19;15.53;;;4.73;;
12707;SDS011;6418;50.824;4.718;2023-12-28T07:59:46;18.90;;;5.33;;
12707;SDS011;6418;50.824;4.718;2023-12-28T08:02:13;16.50;;;5.00;;
12707;SDS011;6418;50.824;4.718;2023-12-28T08:04:41;17.17;;;4.80;;
12707;SDS011;6418;50.824;4.718;2023-12-28T08:07:09;16.53;;;4.50;;
12707;SDS011;6418;50.824;4.718;2023-12-28T08:09:36;16.20;;;5.10;;
12707;SDS011;6418;50.824;4.718;2023-12-28T08:12:03;18.63;;;4.70;;
12707;SDS011;6418;50.824;4.718;2023-12-28T08:14:31;17.93;;;4.87;;
12707;SDS011;6418;50.824;4.718;2023-12-28T08:16:58;18.37;;;5.60;;
12707;SDS011;6418;50.824;4.718;2023-12-28T08:19:25;17.43;;;4.60;;
12707;SDS011;6418;50.824;4.718;2023-12-28T08:21:52;16.23;;;5.03;;
12707;SDS011;6418;50.824;4.718;2023-12-28T08:24:20;15.90;;;5.00;;
12707;SDS011;6418;50.824;4.718;2023-12-28T08:26:47;16.70;;;4.53;;
12707;SDS011;6418;50.824;4.718;2023-12-28T08:29:14;19.50;;;5.40;;
12707;SDS011;6418;50.824;4.718;2023-12-28T08:31:43;18.00;;;5.13;;
12707;SDS011;6418;50.824;4.718;2023-12-28T08:34:10;14.17;;;4.80;;
12707;SDS011;6418;50.824;4.718;2023-12-28T08:36:37;16.53;;;4.80;;
12707;SDS011;6418;50.824;4.718;2023-12-28T08:39:04;15.80;;;4.60;;
12707;SDS011;6418;50.824;4.718;2023-12-28T08:41:32;19.10;;;5.07;;
12707;SDS011;6418;50.824;4.718;2023-12-28T08:43:59;22.17;;;5.43;;
12707;SDS011;6418;50.824;4.718;2023-12-28T08:46:26;18.47;;;4.60;;
12707;SDS011;6418;50.824;4.718;2023-12-28T08:48:53;16.90;;;4.77;;
12707;SDS011;6418;50.824;4.718;2023-12-28T08:51:21;18.83;;;5.27;;
12707;SDS011;6418;50.824;4.718;2023-12-28T08:53:48;16.37;;;4.93;;
12707;SDS011;6418;50.824;4.718;2023-12-28T08:56:18;18.63;;;4.77;;
12707;SDS011;6418;50.824;4.718;2023-12-28T08:58:48;20.50;;;4.97;;
12707;SDS011;6418;50.824;4.718;2023-12-28T09:01:16;19.03;;;5.40;;
12707;SDS011;6418;50.824;4.718;2023-12-28T09:03:43;20.37;;;5.70;;
12707;SDS011;6418;50.824;4.718;2023-12-28T09:06:11;21.27;;;5.23;;
12707;SDS011;6418;50.824;4.718;2023-12-28T09:08:40;15.83;;;5.10;;
12707;SDS011;6418;50.824;4.718;2023-12-28T09:11:09;16.43;;;4.73;;
12707;SDS011;6418;50.824;4.718;2023-12-28T09:13:36;19.47;;;4.97;;
12707;SDS011;6418;50.824;4.718;2023-12-28T09:16:04;20.23;;;5.03;;
12707;SDS011;6418;50.824;4.718;2023-12-28T09:18:32;18.27;;;4.87;;
12707;SDS011;6418;50.824;4.718;2023-12-28T09:20:59;25.20;;;5.07;;
12707;SDS011;6418;50.824;4.718;2023-12-28T09:23:26;21.33;;;5.23;;
12707;SDS011;6418;50.824;4.718;2023-12-28T09:25:53;19.43;;;5.10;;
12707;SDS011;6418;50.824;4.718;2023-12-28T09:28:20;19.27;;;4.87;;
12707;SDS011;6418;50.824;4.718;2023-12-28T09:30:47;17.57;;;5.60;;
12707;SDS011;6418;50.824;4.718;2023-12-28T09:33:15;17.13;;;4.87;;
12707;SDS011;6418;50.824;4.718;2023-12-28T09:35:42;18.07;;;5.30;;
12707;SDS011;6418;50.824;4.718;2023-12-28T09:38:09;17.90;;;5.07;;
12707;SDS011;6418;50.824;4.718;2023-12-28T09:40:36;21.87;;;5.13;;
12707;SDS011;6418;50.824;4.718;2023-12-28T09:43:07;19.43;;;4.93;;
12707;SDS011;6418;50.824;4.718;2023-12-28T09:45:41;19.83;;;4.60;;
12707;SDS011;6418;50.824;4.718;2023-12-28T09:48:08;16.23;;;4.57;;
12707;SDS011;6418;50.824;4.718;2023-12-28T09:50:39;21.43;;;5.00;;
12707;SDS011;6418;50.824;4.718;2023-12-28T09:53:06;18.87;;;4.70;;
12707;SDS011;6418;50.824;4.718;2023-12-28T09:55:33;21.97;;;5.20;;
12707;SDS011;6418;50.824;4.718;2023-12-28T09:58:00;17.10;;;4.87;;
12707;SDS011;6418;50.824;4.718;2023-12-28T10:00:30;21.53;;;5.00;;
12707;SDS011;6418;50.824;4.718;2023-12-28T10:02:57;17.93;;;4.87;;
12707;SDS011;6418;50.824;4.718;2023-12-28T10:05:24;21.87;;;5.20;;
12707;SDS011;6418;50.824;4.718;2023-12-28T10:07:53;20.10;;;4.93;;
12707;SDS011;6418;50.824;4.718;2023-12-28T10:10:22;18.30;;;4.97;;
12707;SDS011;6418;50.824;4.718;2023-12-28T10:12:49;21.30;;;5.23;;
12707;SDS011;6418;50.824;4.718;2023-12-28T10:15:16;22.20;;;5.10;;
12707;SDS011;6418;50.824;4.718;2023-12-28T10:17:45;18.33;;;5.03;;
12707;SDS011;6418;50.824;4.718;2023-12-28T10:20:12;18.50;;;4.83;;
12707;SDS011;6418;50.824;4.718;2023-12-28T10:22:40;22.50;;;5.30;;
12707;SDS011;6418;50.824;4.718;2023-12-28T10:25:09;18.53;;;5.10;;
12707;SDS011;6418;50.824;4.718;2023-12-28T10:27:38;16.47;;;4.73;;
12707;SDS011;6418;50.824;4.718;2023-12-28T10:30:07;17.80;;;5.07;;
12707;SDS011;6418;50.824;4.718;2023-12-28T10:32:36;19.13;;;5.23;;
12707;SDS011;6418;50.824;4.718;2023-12-28T10:35:06;19.60;;;5.53;;
12707;SDS011;6418;50.824;4.718;2023-12-28T10:37:33;18.53;;;5.10;;
12707;SDS011;6418;50.824;4.718;2023-12-28T10:40:03;18.17;;;5.10;;
12707;SDS011;6418;50.824;4.718;2023-12-28T10:42:36;21.57;;;5.43;;
12707;SDS011;6418;50.824;4.718;2023-12-28T10:45:10;19.60;;;5.57;;
12707;SDS011;6418;50.824;4.718;2023-12-28T10:47:43;23.60;;;4.97;;
12707;SDS011;6418;50.824;4.718;2023-12-28T10:50:17;17.67;;;4.90;;
12707;SDS011;6418;50.824;4.718;2023-12-28T10:52:45;22.57;;;5.77;;
12707;SDS011;6418;50.824;4.718;2023-12-28T10:55:21;17.53;;;4.70;;
12707;SDS011;6418;50.824;4.718;2023-12-28T10:57:59;23.07;;;5.60;;
12707;SDS011;6418;50.824;4.718;2023-12-28T11:00:34;16.67;;;4.93;;
12707;SDS011;6418;50.824;4.718;2023-12-28T11:03:05;23.87;;;5.27;;
12707;SDS011;6418;50.824;4.718;2023-12-28T11:05:37;18.17;;;5.50;;
12707;SDS011;6418;50.824;4.718;2023-12-28T11:08:09;19.13;;;4.80;;
12707;SDS011;6418;50.824;4.718;2023-12-28T11:10:38;23.60;;;5.50;;
12707;SDS011;6418;50.824;4.718;2023-12-28T11:13:07;21.83;;;5.07;;
12707;SDS011;6418;50.824;4.718;2023-12-28T11:15:35;25.50;;;5.23;;
12707;SDS011;6418;50.824;4.718;2023-12-28T11:18:04;16.07;;;4.93;;
12707;SDS011;6418;50.824;4.718;2023-12-28T11:20:31;21.10;;;5.50;;
12707;SDS011;6418;50.824;4.718;2023-12-28T11:22:59;21.20;;;5.43;;
12707;SDS011;6418;50.824;4.718;2023-12-28T11:25:30;19.57;;;5.10;;
12707;SDS011;6418;50.824;4.718;2023-12-28T11:27:59;19.83;;;5.57;;
12707;SDS011;6418;50.824;4.718;2023-12-28T11:30:28;22.00;;;5.20;;
12707;SDS011;6418;50.824;4.718;2023-12-28T11:32:56;19.07;;;5.30;;
12707;SDS011;6418;50.824;4.718;2023-12-28T11:35:23;20.53;;;5.27;;
12707;SDS011;6418;50.824;4.718;2023-12-28T11:37:57;24.10;;;5.70;;
12707;SDS011;6418;50.824;4.718;2023-12-28T11:40:28;19.50;;;5.30;;
12707;SDS011;6418;50.824;4.718;2023-12-28T11:42:55;23.87;;;5.37;;
12707;SDS011;6418;50.824;4.718;2023-12-28T11:45:22;26.87;;;5.77;;
12707;SDS011;6418;50.824;4.718;2023-12-28T11:47:59;18.57;;;4.90;;
12707;SDS011;6418;50.824;4.718;2023-12-28T11:50:27;23.13;;;5.40;;
12707;SDS011;6418;50.824;4.718;2023-12-28T11:52:54;23.87;;;5.53;;
12707;SDS011;6418;50.824;4.718;2023-12-28T11:55:21;20.67;;;5.10;;
12707;SDS011;6418;50.824;4.718;2023-12-28T11:57:48;18.33;;;5.30;;
12707;SDS011;6418;50.824;4.718;2023-12-28T12:00:16;17.97;;;5.07;;
12707;SDS011;6418;50.824;4.718;2023-12-28T12:02:45;22.03;;;5.67;;
12707;SDS011;6418;50.824;4.718;2023-12-28T12:05:13;22.10;;;5.30;;
12707;SDS011;6418;50.824;4.718;2023-12-28T12:07:41;26.03;;;5.73;;
12707;SDS011;6418;50.824;4.718;2023-12-28T12:10:08;21.33;;;5.20;;
12707;SDS011;6418;50.824;4.718;2023-12-28T12:12:41;19.83;;;4.93;;
12707;SDS011;6418;50.824;4.718;2023-12-28T12:15:09;18.03;;;5.47;;
12707;SDS011;6418;50.824;4.718;2023-12-28T12:17:36;17.30;;;5.13;;
12707;SDS011;6418;50.824;4.718;2023-12-28T12:20:03;21.50;;;5.37;;
12707;SDS011;6418;50.824;4.718;2023-12-28T12:22:32;23.70;;;5.20;;
12707;SDS011;6418;50.824;4.718;2023-12-28T12:24:59;15.90;;;4.90;;
12707;SDS011;6418;50.824;4.718;2023-12-28T12:27:30;22.13;;;5.13;;
12707;SDS011;6418;50.824;4.718;2023-12-28T12:29:57;19.33;;;5.43;;
12707;SDS011;6418;50.824;4.718;2023-12-28T12:32:24;18.47;;;5.30;;
12707;SDS011;6418;50.824;4.718;2023-12-28T12:34:51;16.27;;;4.97;;
12707;SDS011;6418;50.824;4.718;2023-12-28T12:37:18;20.67;;;5.50;;
12707;SDS011;6418;50.824;4.718;2023-12-28T12:39:47;21.90;;;5.33;;
12707;SDS011;6418;50.824;4.718;2023-12-28T12:42:14;17.50;;;4.93;;
12707;SDS011;6418;50.824;4.718;2023-12-28T12:44:41;18.40;;;5.17;;
12707;SDS011;6418;50.824;4.718;2023-12-28T12:47:08;19.70;;;5.13;;
12707;SDS011;6418;50.824;4.718;2023-12-28T12:49:35;22.50;;;5.60;;
12707;SDS011;6418;50.824;4.718;2023-12-28T12:52:03;17.70;;;5.13;;
12707;SDS011;6418;50.824;4.718;2023-12-28T12:54:33;18.30;;;5.10;;
12707;SDS011;6418;50.824;4.718;2023-12-28T12:57:01;19.23;;;4.80;;
12707;SDS011;6418;50.824;4.718;2023-12-28T12:59:29;21.73;;;5.07;;
12707;SDS011;6418;50.824;4.718;2023-12-28T13:01:56;19.17;;;4.90;;
12707;SDS011;6418;50.824;4.718;2023-12-28T13:04:23;19.60;;;5.20;;
12707;SDS011;6418;50.824;4.718;2023-12-28T13:06:50;18.33;;;5.20;;
12707;SDS011;6418;50.824;4.718;2023-12-28T13:09:17;17.03;;;5.03;;
12707;SDS011;6418;50.824;4.718;2023-12-28T13:11:45;21.67;;;5.63;;
12707;SDS011;6418;50.824;4.718;2023-12-28T13:14:16;18.07;;;5.00;;
12707;SDS011;6418;50.824;4.718;2023-12-28T13:16:43;18.13;;;4.83;;
12707;SDS011;6418;50.824;4.718;2023-12-28T13:19:13;21.17;;;5.10;;
12707;SDS011;6418;50.824;4.718;2023-12-28T13:21:40;21.87;;;5.10;;
12707;SDS011;6418;50.824;4.718;2023-12-28T13:24:08;17.83;;;4.87;;
12707;SDS011;6418;50.824;4.718;2023-12-28T13:26:35;18.77;;;4.90;;
12707;SDS011;6418;50.824;4.718;2023-12-28T13:29:02;18.00;;;4.87;;
12707;SDS011;6418;50.824;4.718;2023-12-28T13:31:30;19.60;;;5.07;;
12707;SDS011;6418;50.824;4.718;2023-12-28T13:33:57;18.03;;;5.13;;
12707;SDS011;6418;50.824;4.718;2023-12-28T13:36:24;23.00;;;5.43;;
12707;SDS011;6418;50.824;4.718;2023-12-28T13:38:53;25.40;;;4.83;;
12707;SDS011;6418;50.824;4.718;2023-12-28T13:41:20;18.00;;;4.80;;
12707;SDS011;6418;50.824;4.718;2023-12-28T13:43:47;19.73;;;4.90;;
12707;SDS011;6418;50.824;4.718;2023-12-28T13:46:14;17.57;;;4.57;;
12707;SDS011;6418;50.824;4.718;2023-12-28T13:48:42;17.10;;;4.63;;
12707;SDS011;6418;50.824;4.718;2023-12-28T13:51:09;17.07;;;4.43;;
12707;SDS011;6418;50.824;4.718;2023-12-28T13:53:36;19.30;;;4.90;;
12707;SDS011;6418;50.824;4.718;2023-12-28T13:56:05;18.97;;;4.77;;
12707;SDS011;6418;50.824;4.718;2023-12-28T13:58:33;21.23;;;4.97;;
12707;SDS011;6418;50.824;4.718;2023-12-28T14:01:00;18.77;;;5.13;;
12707;SDS011;6418;50.824;4.718;2023-12-28T14:03:27;20.90;;;5.10;;
12707;SDS011;6418;50.824;4.718;2023-12-28T14:05:56;16.93;;;4.60;;
12707;SDS011;6418;50.824;4.718;2023-12-28T14:08:23;16.43;;;4.80;;
12707;SDS011;6418;50.824;4.718;2023-12-28T14:10:50;19.07;;;5.03;;
12707;SDS011;6418;50.824;4.718;2023-12-28T14:13:17;17.77;;;4.40;;
12707;SDS011;6418;50.824;4.718;2023-12-28T14:15:44;19.20;;;4.43;;
12707;SDS011;6418;50.824;4.718;2023-12-28T14:18:11;18.63;;;4.97;;
12707;SDS011;6418;50.824;4.718;2023-12-28T14:20:39;16.83;;;4.60;;
12707;SDS011;6418;50.824;4.718;2023-12-28T14:23:07;16.50;;;4.57;;
12707;SDS011;6418;50.824;4.718;2023-12-28T14:25:35;20.03;;;4.90;;
12707;SDS011;6418;50.824;4.718;2023-12-28T14:28:02;17.43;;;4.57;;
12707;SDS011;6418;50.824;4.718;2023-12-28T14:30:30;20.57;;;4.77;;
12707;SDS011;6418;50.824;4.718;2023-12-28T14:32:58;15.93;;;4.47;;
12707;SDS011;6418;50.824;4.718;2023-12-28T14:35:25;22.20;;;4.70;;
12707;SDS011;6418;50.824;4.718;2023-12-28T14:37:53;19.70;;;4.60;;
12707;SDS011;6418;50.824;4.718;2023-12-28T14:40:21;16.90;;;4.70;;
12707;SDS011;6418;50.824;4.718;2023-12-28T14:42:48;16.17;;;4.50;;
12707;SDS011;6418;50.824;4.718;2023-12-28T14:45:15;17.30;;;4.40;;
12707;SDS011;6418;50.824;4.718;2023-12-28T14:47:43;16.60;;;4.77;;
12707;SDS011;6418;50.824;4.718;2023-12-28T14:50:10;19.80;;;4.73;;
12707;SDS011;6418;50.824;4.718;2023-12-28T14:52:38;18.17;;;5.20;;